Aviation Digital Data Service (ADDS)

Output produced by METARs form (0319 UTC 29 September 2016)
found at http://www.aviationweather.gov/adds/metars/
 
KDOV 290258Z AUTO 07022G29KT 10SM -RA OVC008 19/19 A3009 RMK AO2 PK WND 08029/50 LTG DSNT W DZB01E15RAB20 OVC V BKN SLP193 P0008 60045 T01920192 58001 $
TAF KDOV 290000Z 2900/3006 06015G20KT 6000 -RA OVC008 QNH3005INS 
     TEMPO 2900/2906 4800 -TSRA OVC008CB 
     BECMG 2905/2906 06015G25KT 3200 RA OVC005 QNH3007INS 
     BECMG 2912/2913 05020G30KT 4800 -RA OVC009 510003 QNH3007INS 
     BECMG 2921/2922 06025G35KT 6000 -RA OVC006 510003 QNH3012INS 
     BECMG 3002/3003 06020G30KT 4800 -RA OVC005 510003 QNH3007INS TX21/2918Z TN18/2909Z